SKY917 RJBE-RJTT
Flight info
| Callsign | SKY917 |
|---|---|
| Flight time | N/A |
| Altitude | 35000 |
| Route | MUKRI LANID REVUE HYOGO SANDA Y289 SHTLE Y71 XAC |
| Aircraft | B738/M-SDGIJ1LRWY/SB1 |
Departure
| Time | 2026-04-26 04:40 |
|---|---|
| Airport | Kobe Airport (RJBE) |
Arrival
| Time | N/A |
|---|---|
| Airport | Tokyo Haneda International Airport (RJTT) |
| Time | Latitude | Longitude | Altitude | Speed | Heading |
|---|---|---|---|---|---|
| 2026-04-26 04:26 | 34.63599 | 135.22788 | 22 ft | 0 kts | 354° |
| 2026-04-26 04:34 | 34.63594 | 135.22788 | 22 ft | 2 kts | 354° |
| 2026-04-26 04:34 | 34.63579 | 135.22790 | 22 ft | 2 kts | 354° |
| 2026-04-26 04:34 | 34.63564 | 135.22792 | 22 ft | 1 kts | 354° |
| 2026-04-26 04:34 | 34.63554 | 135.22792 | 22 ft | 2 kts | 345° |
| 2026-04-26 04:35 | 34.63542 | 135.22803 | 22 ft | 2 kts | 311° |
| 2026-04-26 04:35 | 34.63535 | 135.22818 | 22 ft | 2 kts | 282° |
| 2026-04-26 04:35 | 34.63533 | 135.22829 | 22 ft | 1 kts | 265° |
| 2026-04-26 04:35 | 34.63535 | 135.22836 | 22 ft | 0 kts | 264° |
| 2026-04-26 04:37 | 34.63532 | 135.22819 | 22 ft | 4 kts | 253° |
| 2026-04-26 04:37 | 34.63500 | 135.22768 | 21 ft | 10 kts | 229° |
| 2026-04-26 04:37 | 34.63459 | 135.22664 | 21 ft | 18 kts | 263° |
| 2026-04-26 04:38 | 34.63443 | 135.22467 | 21 ft | 28 kts | 264° |
| 2026-04-26 04:38 | 34.63422 | 135.22198 | 21 ft | 32 kts | 264° |
| 2026-04-26 04:38 | 34.63401 | 135.21935 | 21 ft | 30 kts | 264° |
| 2026-04-26 04:38 | 34.63382 | 135.21680 | 21 ft | 29 kts | 264° |
| 2026-04-26 04:39 | 34.63362 | 135.21433 | 21 ft | 28 kts | 264° |
| 2026-04-26 04:39 | 34.63344 | 135.21196 | 21 ft | 27 kts | 265° |
| 2026-04-26 04:39 | 34.63277 | 135.21036 | 20 ft | 19 kts | 182° |
| 2026-04-26 04:39 | 34.63178 | 135.21059 | 20 ft | 13 kts | 128° |
| 2026-04-26 04:40 | 34.63179 | 135.21211 | 20 ft | 36 kts | 84° |
| 2026-04-26 04:40 | 34.63228 | 135.21832 | 21 ft | 108 kts | 83° |
| 2026-04-26 04:40 | 34.63317 | 135.22977 | 30 ft | 162 kts | 84° |
| 2026-04-26 04:40 | 34.63423 | 135.24326 | 679 ft | 161 kts | 83° |
| 2026-04-26 04:41 | 34.63314 | 135.25719 | 1226 ft | 174 kts | 113° |
| 2026-04-26 04:41 | 34.62497 | 135.26878 | 1754 ft | 192 kts | 144° |
| 2026-04-26 04:41 | 34.61222 | 135.27539 | 2250 ft | 209 kts | 165° |
| 2026-04-26 04:41 | 34.59730 | 135.27434 | 2730 ft | 230 kts | 198° |
| 2026-04-26 04:42 | 34.58429 | 135.26178 | 3193 ft | 254 kts | 236° |
| 2026-04-26 04:42 | 34.57860 | 135.24087 | 3732 ft | 271 kts | 263° |
| 2026-04-26 04:42 | 34.57800 | 135.21796 | 4393 ft | 279 kts | 269° |
| 2026-04-26 04:42 | 34.57794 | 135.19444 | 5202 ft | 280 kts | 267° |
| 2026-04-26 04:43 | 34.57721 | 135.17091 | 6041 ft | 280 kts | 264° |
| 2026-04-26 04:43 | 34.57596 | 135.14755 | 6860 ft | 280 kts | 263° |
| 2026-04-26 04:43 | 34.57445 | 135.12413 | 7608 ft | 282 kts | 262° |
| 2026-04-26 04:43 | 34.57154 | 135.10094 | 8369 ft | 282 kts | 252° |
| 2026-04-26 04:44 | 34.56535 | 135.07858 | 9128 ft | 281 kts | 246° |
| 2026-04-26 04:44 | 34.55848 | 135.05649 | 9860 ft | 284 kts | 252° |
| 2026-04-26 04:44 | 34.55601 | 135.03259 | 10480 ft | 293 kts | 268° |
| 2026-04-26 04:44 | 34.55722 | 135.00693 | 10883 ft | 309 kts | 272° |
| 2026-04-26 04:45 | 34.56001 | 134.98067 | 11285 ft | 324 kts | 279° |
| 2026-04-26 04:45 | 34.56752 | 134.95415 | 11669 ft | 342 kts | 294° |
| 2026-04-26 04:45 | 34.58042 | 134.92908 | 12076 ft | 359 kts | 305° |
| 2026-04-26 04:45 | 34.59797 | 134.90695 | 12397 ft | 377 kts | 320° |
| 2026-04-26 04:46 | 34.62138 | 134.89168 | 12897 ft | 390 kts | 340° |
| 2026-04-26 04:46 | 34.64782 | 134.88414 | 13599 ft | 394 kts | 347° |
| 2026-04-26 04:46 | 34.67501 | 134.87851 | 14256 ft | 400 kts | 352° |
| 2026-04-26 04:46 | 34.70330 | 134.87852 | 14940 ft | 407 kts | 6° |
| 2026-04-26 04:47 | 34.73107 | 134.88579 | 15568 ft | 414 kts | 14° |
| 2026-04-26 04:47 | 34.75840 | 134.89781 | 16249 ft | 420 kts | 24° |
| 2026-04-26 04:47 | 34.78389 | 134.91602 | 16873 ft | 426 kts | 35° |
| 2026-04-26 04:47 | 34.80705 | 134.93787 | 17545 ft | 430 kts | 39° |
| 2026-04-26 04:48 | 34.84862 | 134.99115 | 18607 ft | 443 kts | 59° |
| 2026-04-26 04:48 | 34.86233 | 135.02466 | 19187 ft | 447 kts | 70° |
| 2026-04-26 04:48 | 34.87203 | 135.06102 | 19768 ft | 451 kts | 76° |
| 2026-04-26 04:49 | 34.88018 | 135.09816 | 20181 ft | 459 kts | 77° |
| 2026-04-26 04:49 | 34.88771 | 135.13582 | 20720 ft | 465 kts | 78° |
| 2026-04-26 04:49 | 34.89510 | 135.17421 | 21242 ft | 470 kts | 78° |
| 2026-04-26 04:49 | 34.90249 | 135.21313 | 21772 ft | 474 kts | 78° |
| 2026-04-26 04:50 | 34.90998 | 135.25261 | 22257 ft | 480 kts | 78° |
| 2026-04-26 04:50 | 34.91761 | 135.29275 | 22669 ft | 487 kts | 78° |
| 2026-04-26 04:50 | 34.92401 | 135.33311 | 23139 ft | 491 kts | 83° |
| 2026-04-26 04:50 | 34.92742 | 135.37433 | 23588 ft | 495 kts | 89° |
| 2026-04-26 04:51 | 34.92819 | 135.41663 | 23962 ft | 500 kts | 93° |
| 2026-04-26 04:51 | 34.92706 | 135.45894 | 24360 ft | 506 kts | 96° |
| 2026-04-26 04:51 | 34.92485 | 135.50180 | 24711 ft | 512 kts | 97° |
| 2026-04-26 04:51 | 34.92208 | 135.54521 | 25183 ft | 515 kts | 98° |
| 2026-04-26 04:52 | 34.91909 | 135.58873 | 25564 ft | 521 kts | 99° |
| 2026-04-26 04:52 | 34.91606 | 135.63275 | 25958 ft | 526 kts | 100° |
| 2026-04-26 04:52 | 34.91302 | 135.67750 | 26291 ft | 532 kts | 100° |
| 2026-04-26 04:52 | 34.91004 | 135.72241 | 26588 ft | 539 kts | 101° |
| 2026-04-26 04:53 | 34.90713 | 135.76761 | 27071 ft | 539 kts | 100° |
| 2026-04-26 04:53 | 34.90428 | 135.81325 | 27582 ft | 540 kts | 101° |
| 2026-04-26 04:53 | 34.90150 | 135.85881 | 28081 ft | 540 kts | 101° |
| 2026-04-26 04:53 | 34.89874 | 135.90413 | 28519 ft | 541 kts | 102° |
| 2026-04-26 04:54 | 34.89595 | 135.94972 | 28909 ft | 544 kts | 101° |
| 2026-04-26 04:54 | 34.89305 | 135.99629 | 29036 ft | 553 kts | 102° |
| 2026-04-26 04:54 | 34.89018 | 136.04254 | 29504 ft | 552 kts | 102° |
| 2026-04-26 04:54 | 34.88732 | 136.08914 | 30069 ft | 550 kts | 102° |
| 2026-04-26 04:55 | 34.88448 | 136.13528 | 30638 ft | 547 kts | 102° |
| 2026-04-26 04:55 | 34.88292 | 136.16066 | 30928 ft | 546 kts | 102° |
| 2026-04-26 04:55 | 34.88180 | 136.17885 | 31146 ft | 545 kts | 103° |
| 2026-04-26 04:55 | 34.87983 | 136.21051 | 31464 ft | 545 kts | 103° |
| 2026-04-26 04:56 | 34.87695 | 136.25623 | 31898 ft | 545 kts | 103° |
| 2026-04-26 04:56 | 34.87408 | 136.30167 | 32549 ft | 538 kts | 104° |
| 2026-04-26 04:56 | 34.87125 | 136.34656 | 33187 ft | 533 kts | 104° |
| 2026-04-26 04:56 | 34.86842 | 136.39127 | 33780 ft | 528 kts | 104° |
| 2026-04-26 04:57 | 34.86553 | 136.43600 | 34115 ft | 530 kts | 104° |
| 2026-04-26 04:57 | 34.86253 | 136.48085 | 34376 ft | 533 kts | 104° |
| 2026-04-26 04:57 | 34.85943 | 136.52657 | 34664 ft | 534 kts | 104° |
| 2026-04-26 04:57 | 34.85639 | 136.57153 | 35006 ft | 535 kts | 104° |
| 2026-04-26 04:58 | 34.85022 | 136.66304 | 35060 ft | 537 kts | 104° |
| 2026-04-26 04:58 | 34.84426 | 136.75288 | 35063 ft | 530 kts | 105° |
| 2026-04-26 04:59 | 34.83819 | 136.84258 | 35066 ft | 526 kts | 105° |
| 2026-04-26 04:59 | 34.83195 | 136.93219 | 35070 ft | 531 kts | 104° |
| 2026-04-26 05:00 | 34.82438 | 137.02167 | 35070 ft | 529 kts | 107° |
| 2026-04-26 05:00 | 34.81444 | 137.10962 | 35074 ft | 524 kts | 108° |
| 2026-04-26 05:01 | 34.80386 | 137.19750 | 35074 ft | 528 kts | 108° |
| 2026-04-26 05:01 | 34.79326 | 137.28644 | 35072 ft | 526 kts | 108° |
| 2026-04-26 05:02 | 34.78308 | 137.37427 | 35078 ft | 528 kts | 108° |
| 2026-04-26 05:02 | 34.77291 | 137.46245 | 35074 ft | 529 kts | 108° |
| 2026-04-26 05:03 | 34.76286 | 137.55026 | 35074 ft | 525 kts | 107° |
| 2026-04-26 05:03 | 34.75265 | 137.63846 | 35073 ft | 530 kts | 107° |
| 2026-04-26 05:04 | 34.74258 | 137.72725 | 35071 ft | 528 kts | 107° |
| 2026-04-26 05:04 | 34.73394 | 137.81636 | 35076 ft | 529 kts | 105° |
| 2026-04-26 05:05 | 34.72568 | 137.90605 | 35080 ft | 535 kts | 105° |
| 2026-04-26 05:05 | 34.71756 | 137.99483 | 34945 ft | 526 kts | 105° |
| 2026-04-26 05:06 | 34.71420 | 138.03847 | 34613 ft | 522 kts | 102° |
| 2026-04-26 05:06 | 34.71264 | 138.08246 | 34314 ft | 517 kts | 99° |
| 2026-04-26 05:06 | 34.71234 | 138.12598 | 33849 ft | 515 kts | 97° |
| 2026-04-26 05:06 | 34.71276 | 138.16923 | 33349 ft | 513 kts | 97° |
| 2026-04-26 05:07 | 34.71344 | 138.21240 | 32834 ft | 510 kts | 96° |
| 2026-04-26 05:07 | 34.71410 | 138.25501 | 32313 ft | 508 kts | 96° |
| 2026-04-26 05:07 | 34.71466 | 138.29765 | 31784 ft | 506 kts | 96° |
| 2026-04-26 05:07 | 34.71511 | 138.34033 | 31288 ft | 503 kts | 96° |
| 2026-04-26 05:08 | 34.71544 | 138.38242 | 30765 ft | 501 kts | 97° |
| 2026-04-26 05:08 | 34.71565 | 138.42448 | 30223 ft | 499 kts | 96° |
| 2026-04-26 05:08 | 34.71579 | 138.46686 | 29693 ft | 497 kts | 96° |
| 2026-04-26 05:08 | 34.71585 | 138.50842 | 29203 ft | 494 kts | 97° |
| 2026-04-26 05:09 | 34.71587 | 138.54997 | 28699 ft | 493 kts | 95° |
| 2026-04-26 05:09 | 34.71586 | 138.59134 | 28185 ft | 491 kts | 95° |
| 2026-04-26 05:09 | 34.71582 | 138.63240 | 27659 ft | 489 kts | 95° |
| 2026-04-26 05:09 | 34.71578 | 138.67404 | 27156 ft | 487 kts | 95° |
| 2026-04-26 05:10 | 34.71573 | 138.71501 | 26622 ft | 485 kts | 95° |
| 2026-04-26 05:10 | 34.71571 | 138.75522 | 26106 ft | 482 kts | 95° |
| 2026-04-26 05:10 | 34.71566 | 138.79582 | 25576 ft | 479 kts | 95° |
| 2026-04-26 05:10 | 34.71557 | 138.83621 | 25066 ft | 476 kts | 94° |
| 2026-04-26 05:11 | 34.71547 | 138.87584 | 24539 ft | 473 kts | 94° |
| 2026-04-26 05:11 | 34.71532 | 138.91550 | 24031 ft | 470 kts | 93° |
| 2026-04-26 05:11 | 34.71514 | 138.95535 | 23500 ft | 467 kts | 93° |
| 2026-04-26 05:11 | 34.71495 | 138.99437 | 22985 ft | 464 kts | 92° |
| 2026-04-26 05:12 | 34.71476 | 139.03349 | 22473 ft | 460 kts | 92° |
| 2026-04-26 05:12 | 34.71457 | 139.07156 | 22008 ft | 455 kts | 92° |
| 2026-04-26 05:12 | 34.71437 | 139.10979 | 21504 ft | 451 kts | 92° |
| 2026-04-26 05:12 | 34.71415 | 139.14763 | 20997 ft | 447 kts | 92° |
| 2026-04-26 05:13 | 34.71393 | 139.18517 | 20467 ft | 444 kts | 92° |
| 2026-04-26 05:13 | 34.71370 | 139.22220 | 19938 ft | 440 kts | 92° |
| 2026-04-26 05:13 | 34.71347 | 139.25922 | 19400 ft | 437 kts | 93° |
| 2026-04-26 05:13 | 34.71323 | 139.29602 | 18914 ft | 432 kts | 92° |
| 2026-04-26 05:14 | 34.71297 | 139.33199 | 18378 ft | 429 kts | 93° |
| 2026-04-26 05:14 | 34.71286 | 139.36826 | 17890 ft | 424 kts | 91° |
| 2026-04-26 05:14 | 34.71508 | 139.40379 | 17411 ft | 421 kts | 82° |
| 2026-04-26 05:14 | 34.72261 | 139.43721 | 16923 ft | 410 kts | 67° |
| 2026-04-26 05:15 | 34.73461 | 139.46782 | 16429 ft | 395 kts | 62° |
| 2026-04-26 05:15 | 34.74770 | 139.49640 | 15917 ft | 381 kts | 59° |
| 2026-04-26 05:15 | 34.76100 | 139.52390 | 15474 ft | 369 kts | 58° |
| 2026-04-26 05:15 | 34.77383 | 139.55028 | 15015 ft | 357 kts | 58° |
| 2026-04-26 05:16 | 34.78620 | 139.57610 | 14596 ft | 353 kts | 59° |
| 2026-04-26 05:16 | 34.79829 | 139.60187 | 14145 ft | 351 kts | 59° |
| 2026-04-26 05:16 | 34.81031 | 139.62790 | 13714 ft | 350 kts | 59° |
| 2026-04-26 05:16 | 34.82206 | 139.65359 | 13239 ft | 342 kts | 60° |
| 2026-04-26 05:17 | 34.83376 | 139.67752 | 13115 ft | 321 kts | 54° |
| 2026-04-26 05:17 | 34.84806 | 139.69754 | 12990 ft | 305 kts | 34° |
| 2026-04-26 05:17 | 34.86629 | 139.70891 | 13011 ft | 289 kts | 16° |
| 2026-04-26 05:17 | 34.88558 | 139.71614 | 13001 ft | 291 kts | 12° |
| 2026-04-26 05:18 | 34.90507 | 139.72296 | 13002 ft | 291 kts | 13° |
| 2026-04-26 05:18 | 34.92442 | 139.73016 | 13000 ft | 291 kts | 14° |
| 2026-04-26 05:18 | 34.94350 | 139.73770 | 13001 ft | 291 kts | 15° |
| 2026-04-26 05:18 | 34.96282 | 139.74558 | 12998 ft | 290 kts | 15° |
| 2026-04-26 05:19 | 34.98173 | 139.75404 | 13003 ft | 292 kts | 22° |
| 2026-04-26 05:19 | 34.99899 | 139.76721 | 13004 ft | 296 kts | 38° |
| 2026-04-26 05:19 | 35.01403 | 139.78467 | 13004 ft | 298 kts | 44° |
| 2026-04-26 05:19 | 35.02839 | 139.80324 | 12998 ft | 298 kts | 45° |
| 2026-04-26 05:20 | 35.04247 | 139.82129 | 12996 ft | 297 kts | 44° |
| 2026-04-26 05:20 | 35.05709 | 139.83942 | 12998 ft | 297 kts | 43° |
| 2026-04-26 05:20 | 35.07173 | 139.85713 | 12998 ft | 298 kts | 43° |
| 2026-04-26 05:20 | 35.08534 | 139.87628 | 13000 ft | 299 kts | 54° |
| 2026-04-26 05:21 | 35.09343 | 139.89938 | 13003 ft | 301 kts | 82° |
| 2026-04-26 05:21 | 35.09192 | 139.92467 | 12996 ft | 301 kts | 111° |
| 2026-04-26 05:21 | 35.08228 | 139.94730 | 13016 ft | 297 kts | 126° |
| 2026-04-26 05:21 | 35.07076 | 139.96799 | 13000 ft | 297 kts | 127° |
| 2026-04-26 05:22 | 35.05918 | 139.98872 | 12995 ft | 296 kts | 127° |
| 2026-04-26 05:22 | 35.04765 | 140.00986 | 12996 ft | 299 kts | 126° |
| 2026-04-26 05:22 | 35.03634 | 140.03088 | 12997 ft | 297 kts | 126° |
| 2026-04-26 05:22 | 35.02587 | 140.05261 | 13009 ft | 300 kts | 117° |
| 2026-04-26 05:23 | 35.01895 | 140.07684 | 13008 ft | 300 kts | 105° |
| 2026-04-26 05:23 | 35.01456 | 140.10167 | 13002 ft | 302 kts | 102° |
| 2026-04-26 05:23 | 35.01077 | 140.12665 | 12997 ft | 302 kts | 102° |
| 2026-04-26 05:23 | 35.00676 | 140.15195 | 13003 ft | 301 kts | 102° |
| 2026-04-26 05:24 | 35.00257 | 140.17662 | 12997 ft | 298 kts | 102° |
| 2026-04-26 05:24 | 34.99997 | 140.20192 | 12999 ft | 302 kts | 91° |
| 2026-04-26 05:24 | 35.00080 | 140.22719 | 12995 ft | 300 kts | 84° |
| 2026-04-26 05:24 | 35.00321 | 140.25230 | 13004 ft | 301 kts | 82° |
| 2026-04-26 05:25 | 35.00596 | 140.27786 | 13005 ft | 303 kts | 82° |
| 2026-04-26 05:25 | 35.00845 | 140.30299 | 12994 ft | 299 kts | 83° |
| 2026-04-26 05:25 | 35.01102 | 140.32831 | 13003 ft | 302 kts | 79° |
| 2026-04-26 05:25 | 35.01654 | 140.35307 | 12998 ft | 302 kts | 67° |
| 2026-04-26 05:26 | 35.02534 | 140.37619 | 13000 ft | 301 kts | 61° |
| 2026-04-26 05:26 | 35.03516 | 140.39859 | 12998 ft | 300 kts | 60° |
| 2026-04-26 05:26 | 35.04499 | 140.42091 | 12996 ft | 300 kts | 60° |
| 2026-04-26 05:26 | 35.05602 | 140.44272 | 12986 ft | 299 kts | 50° |
| 2026-04-26 05:27 | 35.07062 | 140.46013 | 12991 ft | 295 kts | 27° |
| 2026-04-26 05:27 | 35.08966 | 140.46771 | 12998 ft | 286 kts | 358° |
| 2026-04-26 05:27 | 35.10918 | 140.46469 | 12992 ft | 277 kts | 336° |
| 2026-04-26 05:27 | 35.12643 | 140.45480 | 12991 ft | 273 kts | 324° |
| 2026-04-26 05:28 | 35.14203 | 140.44159 | 12934 ft | 268 kts | 319° |
| 2026-04-26 05:28 | 35.15638 | 140.42773 | 12716 ft | 263 kts | 317° |
| 2026-04-26 05:28 | 35.17060 | 140.41370 | 12405 ft | 261 kts | 317° |
| 2026-04-26 05:28 | 35.18475 | 140.40001 | 12100 ft | 259 kts | 318° |
| 2026-04-26 05:29 | 35.19888 | 140.38657 | 11787 ft | 258 kts | 318° |
| 2026-04-26 05:29 | 35.21303 | 140.37321 | 11479 ft | 256 kts | 318° |
| 2026-04-26 05:29 | 35.22707 | 140.35998 | 11169 ft | 255 kts | 318° |
| 2026-04-26 05:29 | 35.24110 | 140.34674 | 10868 ft | 253 kts | 318° |
| 2026-04-26 05:30 | 35.25505 | 140.33354 | 10552 ft | 251 kts | 318° |
| 2026-04-26 05:30 | 35.26869 | 140.32063 | 10273 ft | 249 kts | 318° |
| 2026-04-26 05:30 | 35.28252 | 140.30756 | 9965 ft | 248 kts | 319° |
| 2026-04-26 05:30 | 35.29612 | 140.29469 | 9663 ft | 246 kts | 318° |
| 2026-04-26 05:31 | 35.30968 | 140.28186 | 9366 ft | 246 kts | 319° |
| 2026-04-26 05:31 | 35.32352 | 140.26868 | 9087 ft | 260 kts | 319° |
| 2026-04-26 05:31 | 35.33789 | 140.25501 | 8746 ft | 263 kts | 319° |
| 2026-04-26 05:31 | 35.35231 | 140.24135 | 8446 ft | 261 kts | 320° |
| 2026-04-26 05:32 | 35.36685 | 140.22790 | 8130 ft | 262 kts | 323° |
| 2026-04-26 05:32 | 35.38317 | 140.21815 | 7922 ft | 259 kts | 344° |
| 2026-04-26 05:32 | 35.40103 | 140.21521 | 7564 ft | 261 kts | 356° |
| 2026-04-26 05:32 | 35.41909 | 140.21448 | 7186 ft | 263 kts | 357° |
| 2026-04-26 05:33 | 35.43747 | 140.21355 | 6847 ft | 262 kts | 356° |
| 2026-04-26 05:33 | 35.45563 | 140.21208 | 6523 ft | 261 kts | 354° |
| 2026-04-26 05:33 | 35.47364 | 140.21028 | 6266 ft | 257 kts | 354° |
| 2026-04-26 05:33 | 35.49132 | 140.20839 | 5941 ft | 257 kts | 354° |
| 2026-04-26 05:34 | 35.50925 | 140.20648 | 5586 ft | 259 kts | 355° |
| 2026-04-26 05:34 | 35.52750 | 140.20442 | 5069 ft | 266 kts | 353° |
| 2026-04-26 05:34 | 35.54395 | 140.20047 | 4966 ft | 256 kts | 346° |
| 2026-04-26 05:34 | 35.56067 | 140.19482 | 4984 ft | 241 kts | 344° |
| 2026-04-26 05:35 | 35.57629 | 140.18852 | 4994 ft | 237 kts | 336° |
| 2026-04-26 05:35 | 35.59014 | 140.17770 | 4985 ft | 236 kts | 312° |